Genco Loire — V7GN8 — position and weather

sailwx.info

Track history (hours):
 
Tides and Currents Weather Stations Pressure Air Temp Water Temp Dewpoint Dewpoint Depression Visibility Wind Speed Wind Dir Waves Ship Positions

Genco Loire

Last reported at 2016-Nov-16 09:18 UTC. Time now 2016-Dec-11 06:10 UTC.
Position N 26°04' W 015°24'.
Warning: this ship's position is 24 days out of date.

Length 190 m; draft 10.1 m.

MMSI: 538002760.

Date/timePositionNaut miles runAvg speedWind from/ knotsBaromVisibWave heightAir tempDewpointWater temp
2016-Nov-16 09:18N 26°04' W 015°24'1011.9
2016-Nov-16 08:29N 26°11' W 015°17'4811.9
2016-Nov-16 04:26N 26°48' W 014°42'1011.5
2016-Nov-16 03:32N 26°55' W 014°34'1111.5
2016-Nov-16 02:33N 27°04' W 014°26'1111.3
2016-Nov-16 01:33N 27°12' W 014°18'4611.6
2016-Nov-15 21:33N 27°47' W 013°43'2412.1
2016-Nov-15 19:33N 28°07' W 013°28'1212.5
2016-Nov-15 18:33N 28°18' W 013°20'6112.2
2016-Nov-15 13:33N 29°08' W 012°40'1211.9
2016-Nov-15 12:33N 29°18' W 012°33'1211.8
2016-Nov-15 11:33N 29°27' W 012°25'7311.9
2016-Nov-15 05:28N 30°27' W 011°37'2311.9
2016-Nov-15 03:33N 30°46' W 011°22'43312.0
2016-Nov-13 15:31N 36°01' W 005°26'6 0.2
2016-Nov-12 09:29N 36°05' W 005°22'24410.6
2016-Nov-11 10:22N 37°32' W 000°37'911.1
2016-Nov-11 09:33N 37°39' W 000°30'15611.8
2016-Nov-10 20:19N 39°53' E 001°12'2112.0
2016-Nov-10 18:33N 40°12' E 001°25'2512.3
2016-Nov-10 16:33N 40°33' E 001°40'1312.3
2016-Nov-10 15:31N 40°45' E 001°48'  
2016-Nov-06 20:33N 41°02' E 002°22'0 0.2
2016-Nov-06 19:33N 41°02' E 002°22'1 0.4
2016-Nov-06 17:33N 41°02' E 002°23'1 0.4
2016-Nov-06 15:33N 41°02' E 002°24'1 0.4
2016-Nov-06 13:33N 41°02' E 002°25'3 3.4
2016-Nov-06 12:33N 41°05' E 002°22'0 0.3
2016-Nov-06 11:33N 41°05' E 002°22'0 0.4
2016-Nov-06 10:33N 41°05' E 002°22'  
Track history (hours):
 
Tides and Currents Weather Stations Pressure Air Temp Water Temp Dewpoint Dewpoint Depression Visibility Wind Speed Wind Dir Waves Ship Positions

Genco Loire

Last reported at 2016-Nov-16 09:18 UTC. Time now 2016-Dec-11 06:10 UTC.
Position N 26°04' W 015°24'.
Warning: this ship's position is 24 days out of date.

Length 190 m; draft 10.1 m.

MMSI: 538002760.

Date/timePositionNaut miles runAvg speedWind from/ knotsBaromVisibWave heightAir tempDewpointWater temp
2016-Nov-16 09:18N 26°04' W 015°24'1011.9
2016-Nov-16 08:29N 26°11' W 015°17'4811.9
2016-Nov-16 04:26N 26°48' W 014°42'1011.5
2016-Nov-16 03:32N 26°55' W 014°34'1111.5
2016-Nov-16 02:33N 27°04' W 014°26'1111.3
2016-Nov-16 01:33N 27°12' W 014°18'4611.6
2016-Nov-15 21:33N 27°47' W 013°43'2412.1
2016-Nov-15 19:33N 28°07' W 013°28'1212.5
2016-Nov-15 18:33N 28°18' W 013°20'6112.2
2016-Nov-15 13:33N 29°08' W 012°40'1211.9
2016-Nov-15 12:33N 29°18' W 012°33'1211.8
2016-Nov-15 11:33N 29°27' W 012°25'7311.9
2016-Nov-15 05:28N 30°27' W 011°37'2311.9
2016-Nov-15 03:33N 30°46' W 011°22'43312.0
2016-Nov-13 15:31N 36°01' W 005°26'6 0.2
2016-Nov-12 09:29N 36°05' W 005°22'24410.6
2016-Nov-11 10:22N 37°32' W 000°37'911.1
2016-Nov-11 09:33N 37°39' W 000°30'15611.8
2016-Nov-10 20:19N 39°53' E 001°12'2112.0
2016-Nov-10 18:33N 40°12' E 001°25'2512.3
2016-Nov-10 16:33N 40°33' E 001°40'1312.3
2016-Nov-10 15:31N 40°45' E 001°48'  
2016-Nov-06 20:33N 41°02' E 002°22'0 0.2
2016-Nov-06 19:33N 41°02' E 002°22'1 0.4
2016-Nov-06 17:33N 41°02' E 002°23'1 0.4
2016-Nov-06 15:33N 41°02' E 002°24'1 0.4
2016-Nov-06 13:33N 41°02' E 002°25'3 3.4
2016-Nov-06 12:33N 41°05' E 002°22'0 0.3
2016-Nov-06 11:33N 41°05' E 002°22'0 0.4
2016-Nov-06 10:33N 41°05' E 002°22'  

Dump ship's entire track history